createdAt,value
2018-01-15T00:00:37.343Z,1013.6
2018-01-15T00:11:23.755Z,1013.4
2018-01-15T00:21:44.654Z,1013.3
2018-01-15T00:32:00.688Z,1013.1
2018-01-15T00:42:21.814Z,1013.0
2018-01-15T00:52:35.718Z,1012.9
2018-01-15T01:03:26.375Z,1012.6
2018-01-15T01:13:51.331Z,1012.6
2018-01-15T01:24:05.379Z,1012.6
2018-01-15T01:34:50.748Z,1012.4
2018-01-15T01:45:36.040Z,1012.3
2018-01-15T01:56:02.326Z,1012.1
2018-01-15T02:06:58.620Z,1012.0
2018-01-15T02:17:44.112Z,1011.8
2018-01-15T02:28:00.274Z,1011.6
2018-01-15T02:38:14.836Z,1011.5
2018-01-15T02:49:05.299Z,1011.2
2018-01-15T02:59:21.863Z,1011.2
2018-01-15T03:09:36.295Z,1011.0
2018-01-15T03:19:50.429Z,1010.8
2018-01-15T03:30:39.080Z,1010.5
2018-01-15T03:40:51.761Z,1010.3
2018-01-15T03:51:37.687Z,1010.2
2018-01-15T04:02:49.081Z,1009.8
2018-01-15T04:13:07.143Z,1009.8
2018-01-15T04:23:50.823Z,1009.7
2018-01-15T04:34:10.650Z,1009.6
2018-01-15T04:44:25.548Z,1009.2
2018-01-15T04:54:40.842Z,1009.1
2018-01-15T05:04:55.156Z,1009.0
2018-01-15T05:15:41.632Z,1008.7
2018-01-15T05:26:29.315Z,1008.5
2018-01-15T05:36:48.068Z,1008.5
2018-01-15T05:47:02.923Z,1008.1
2018-01-15T05:57:16.588Z,1008.0
2018-01-15T06:08:02.932Z,1007.8
2018-01-15T06:18:18.208Z,1007.7
2018-01-15T06:28:34.217Z,1007.6
2018-01-15T06:38:48.715Z,1007.3
2018-01-15T06:49:02.417Z,1007.3
2018-01-15T06:59:48.127Z,1007.2
2018-01-15T07:10:34.292Z,1007.0
2018-01-15T07:20:53.552Z,1006.8
2018-01-15T07:31:08.514Z,1006.6
2018-01-15T07:41:23.858Z,1006.4
2018-01-15T07:51:40.514Z,1006.4
2018-01-15T08:01:55.591Z,1006.1
2018-01-15T08:12:16.566Z,1006.1
2018-01-15T08:22:30.872Z,1006.1
2018-01-15T08:33:16.983Z,1005.8
2018-01-15T08:43:51.352Z,1005.5
2018-01-15T08:54:05.911Z,1005.3
2018-01-15T09:04:20.944Z,1005.2
2018-01-15T09:14:38.063Z,1005.1
2018-01-15T09:24:54.372Z,1005.0
2018-01-15T09:35:10.970Z,1004.8
2018-01-15T09:45:25.775Z,1004.7
2018-01-15T09:55:38.581Z,1004.7
2018-01-15T10:06:27.493Z,1004.4
2018-01-15T10:16:43.854Z,1004.1
2018-01-15T10:27:00.804Z,1003.8
2018-01-15T10:37:25.441Z,1003.6
2018-01-15T10:47:50.263Z,1003.2
2018-01-15T11:09:31.547Z,1002.4
2018-01-15T11:20:20.422Z,1002.0
2018-01-15T11:31:21.627Z,1001.7
2018-01-15T11:41:37.295Z,1001.3
2018-01-15T11:51:58.658Z,1000.9
2018-01-15T12:02:46.306Z,1000.4
2018-01-15T12:13:39.774Z,1000.1
2018-01-15T12:24:30.227Z,999.6
2018-01-15T12:34:48.900Z,999.2
2018-01-15T12:45:08.892Z,999.0
2018-01-15T12:55:29.367Z,998.7
2018-01-15T13:06:18.708Z,998.2
2018-01-15T13:17:11.443Z,997.8
2018-01-15T13:27:59.692Z,997.6
2018-01-15T13:38:22.231Z,997.3
2018-01-15T13:48:41.570Z,997.0
2018-01-15T13:59:02.016Z,996.7
2018-01-15T14:09:21.274Z,996.7
2018-01-15T14:19:39.687Z,996.5
2018-01-15T14:29:58.193Z,996.2
2018-01-15T14:40:16.695Z,995.8
2018-01-15T14:50:35.325Z,995.2
2018-01-15T15:01:25.783Z,994.8
2018-01-15T15:23:03.861Z,994.3
2018-01-15T15:33:20.217Z,994.1
2018-01-15T15:43:44.014Z,993.5
2018-01-15T15:54:03.967Z,993.3
2018-01-15T16:04:53.051Z,993.0
2018-01-15T16:15:43.274Z,992.6
2018-01-15T16:26:00.030Z,992.3
2018-01-15T16:36:20.483Z,991.9
2018-01-15T16:46:52.973Z,991.7
2018-01-15T16:57:28.051Z,991.3
2018-01-15T17:08:15.860Z,991.1
2018-01-15T17:18:55.332Z,990.7
2018-01-15T17:29:47.280Z,990.5
2018-01-15T17:40:03.590Z,990.2
2018-01-15T17:50:22.896Z,989.8
2018-01-15T18:00:39.614Z,989.7
2018-01-15T18:04:06.958Z,989.2
2018-01-15T18:14:22.748Z,989.3
2018-01-15T18:25:34.116Z,988.8
2018-01-15T18:35:50.616Z,988.9
2018-01-15T18:46:05.546Z,988.4
2018-01-15T18:56:25.943Z,988.1
2018-01-15T19:17:50.657Z,987.5
2018-01-15T19:28:16.530Z,987.3
2018-01-15T19:39:06.408Z,987.1
2018-01-15T19:49:30.183Z,986.9
2018-01-15T20:00:38.524Z,986.6
2018-01-15T20:11:45.403Z,986.4
2018-01-15T20:22:42.516Z,986.4
2018-01-15T20:33:35.208Z,986.2
2018-01-15T20:43:56.141Z,986.3
2018-01-15T20:54:48.477Z,986.1
2018-01-15T21:15:59.432Z,986.1
2018-01-15T21:26:13.720Z,986.0
2018-01-15T21:36:27.467Z,986.2
2018-01-15T21:46:41.678Z,986.1
2018-01-15T21:57:28.603Z,986.1
2018-01-15T22:08:16.523Z,986.1
2018-01-15T22:18:30.206Z,986.2
2018-01-15T22:28:45.059Z,986.2
2018-01-15T22:39:00.548Z,986.2
2018-01-15T22:49:45.175Z,986.2
2018-01-15T23:00:00.220Z,985.9
2018-01-15T23:10:15.769Z,986.1
2018-01-15T23:20:30.468Z,986.4
2018-01-15T23:30:44.990Z,986.5
2018-01-15T23:40:59.828Z,986.7
2018-01-15T23:51:14.235Z,986.7
